sensor_id;sensor_type;location;lat;lon;timestamp;P1;durP1;ratioP1;P2;durP2;ratioP2
22455;SDS011;11395;53.204;6.502;2022-07-03T00:05:30;8.33;;;7.50;;
22455;SDS011;11395;53.204;6.502;2022-07-03T00:07:57;8.83;;;7.70;;
22455;SDS011;11395;53.204;6.502;2022-07-03T00:10:23;7.80;;;7.00;;
22455;SDS011;11395;53.204;6.502;2022-07-03T00:12:49;8.77;;;7.93;;
22455;SDS011;11395;53.204;6.502;2022-07-03T00:15:15;9.10;;;7.80;;
22455;SDS011;11395;53.204;6.502;2022-07-03T00:17:42;8.13;;;7.10;;
22455;SDS011;11395;53.204;6.502;2022-07-03T00:20:08;7.90;;;7.10;;
22455;SDS011;11395;53.204;6.502;2022-07-03T00:22:36;8.17;;;7.23;;
22455;SDS011;11395;53.204;6.502;2022-07-03T00:25:06;7.90;;;7.10;;
22455;SDS011;11395;53.204;6.502;2022-07-03T00:27:33;9.50;;;7.47;;
22455;SDS011;11395;53.204;6.502;2022-07-03T00:30:00;8.43;;;6.63;;
22455;SDS011;11395;53.204;6.502;2022-07-03T00:32:28;7.93;;;7.20;;
22455;SDS011;11395;53.204;6.502;2022-07-03T00:34:55;7.40;;;6.70;;
22455;SDS011;11395;53.204;6.502;2022-07-03T00:37:23;7.73;;;6.93;;
22455;SDS011;11395;53.204;6.502;2022-07-03T00:39:50;7.77;;;6.77;;
22455;SDS011;11395;53.204;6.502;2022-07-03T00:42:17;8.80;;;7.73;;
22455;SDS011;11395;53.204;6.502;2022-07-03T00:44:50;8.00;;;7.20;;
22455;SDS011;11395;53.204;6.502;2022-07-03T00:47:20;7.87;;;7.07;;
22455;SDS011;11395;53.204;6.502;2022-07-03T00:49:48;7.40;;;6.70;;
22455;SDS011;11395;53.204;6.502;2022-07-03T00:52:19;8.43;;;7.63;;
22455;SDS011;11395;53.204;6.502;2022-07-03T00:57:22;8.03;;;7.00;;
22455;SDS011;11395;53.204;6.502;2022-07-03T00:59:49;8.50;;;7.00;;
22455;SDS011;11395;53.204;6.502;2022-07-03T01:05:32;7.77;;;6.97;;
22455;SDS011;11395;53.204;6.502;2022-07-03T01:16:58;7.43;;;6.20;;
22455;SDS011;11395;53.204;6.502;2022-07-03T01:25:26;7.80;;;6.87;;
22455;SDS011;11395;53.204;6.502;2022-07-03T01:30:49;7.03;;;6.33;;
22455;SDS011;11395;53.204;6.502;2022-07-03T01:33:23;6.93;;;6.17;;
22455;SDS011;11395;53.204;6.502;2022-07-03T01:38:36;7.40;;;6.70;;
22455;SDS011;11395;53.204;6.502;2022-07-03T01:41:04;6.80;;;6.10;;
22455;SDS011;11395;53.204;6.502;2022-07-03T01:43:34;7.73;;;6.93;;
22455;SDS011;11395;53.204;6.502;2022-07-03T01:46:21;7.07;;;6.37;;
22455;SDS011;11395;53.204;6.502;2022-07-03T01:48:53;6.93;;;6.10;;
22455;SDS011;11395;53.204;6.502;2022-07-03T01:51:21;6.20;;;5.60;;
22455;SDS011;11395;53.204;6.502;2022-07-03T01:53:49;6.53;;;5.93;;
22455;SDS011;11395;53.204;6.502;2022-07-03T01:56:17;6.37;;;5.77;;
22455;SDS011;11395;53.204;6.502;2022-07-03T01:58:45;6.83;;;6.13;;
22455;SDS011;11395;53.204;6.502;2022-07-03T02:06:54;7.50;;;6.77;;
22455;SDS011;11395;53.204;6.502;2022-07-03T02:09:46;7.13;;;5.70;;
22455;SDS011;11395;53.204;6.502;2022-07-03T02:15:04;6.20;;;5.60;;
22455;SDS011;11395;53.204;6.502;2022-07-03T02:17:57;6.83;;;6.13;;
22455;SDS011;11395;53.204;6.502;2022-07-03T02:20:22;6.43;;;5.23;;
22455;SDS011;11395;53.204;6.502;2022-07-03T02:22:52;6.40;;;5.80;;
22455;SDS011;11395;53.204;6.502;2022-07-03T02:30:24;6.90;;;6.07;;
22455;SDS011;11395;53.204;6.502;2022-07-03T02:32:54;5.67;;;5.13;;
22455;SDS011;11395;53.204;6.502;2022-07-03T02:35:27;7.27;;;6.13;;
22455;SDS011;11395;53.204;6.502;2022-07-03T02:40:39;6.63;;;6.03;;
22455;SDS011;11395;53.204;6.502;2022-07-03T02:43:15;5.77;;;5.27;;
22455;SDS011;11395;53.204;6.502;2022-07-03T02:45:51;5.80;;;5.20;;
22455;SDS011;11395;53.204;6.502;2022-07-03T02:48:33;5.80;;;4.97;;
22455;SDS011;11395;53.204;6.502;2022-07-03T02:51:10;6.10;;;5.50;;
22455;SDS011;11395;53.204;6.502;2022-07-03T02:53:47;6.63;;;5.17;;
22455;SDS011;11395;53.204;6.502;2022-07-03T02:56:32;5.43;;;4.93;;
22455;SDS011;11395;53.204;6.502;2022-07-03T03:01:47;6.57;;;5.47;;
22455;SDS011;11395;53.204;6.502;2022-07-03T03:04:30;6.83;;;4.87;;
22455;SDS011;11395;53.204;6.502;2022-07-03T03:07:01;6.00;;;5.13;;
22455;SDS011;11395;53.204;6.502;2022-07-03T03:09:41;5.77;;;4.70;;
22455;SDS011;11395;53.204;6.502;2022-07-03T03:12:09;5.60;;;5.10;;
22455;SDS011;11395;53.204;6.502;2022-07-03T03:14:40;6.03;;;5.10;;
22455;SDS011;11395;53.204;6.502;2022-07-03T03:17:17;5.97;;;4.83;;
22455;SDS011;11395;53.204;6.502;2022-07-03T03:19:52;6.23;;;5.53;;
22455;SDS011;11395;53.204;6.502;2022-07-03T03:25:03;5.90;;;5.40;;
22455;SDS011;11395;53.204;6.502;2022-07-03T03:27:29;5.93;;;5.33;;
22455;SDS011;11395;53.204;6.502;2022-07-03T03:29:56;5.93;;;4.93;;
22455;SDS011;11395;53.204;6.502;2022-07-03T03:32:22;4.93;;;4.43;;
22455;SDS011;11395;53.204;6.502;2022-07-03T03:34:50;5.27;;;4.77;;
22455;SDS011;11395;53.204;6.502;2022-07-03T03:37:16;5.63;;;5.03;;
22455;SDS011;11395;53.204;6.502;2022-07-03T03:39:42;4.70;;;4.27;;
22455;SDS011;11395;53.204;6.502;2022-07-03T03:42:09;5.07;;;4.67;;
22455;SDS011;11395;53.204;6.502;2022-07-03T03:44:35;5.50;;;4.97;;
22455;SDS011;11395;53.204;6.502;2022-07-03T03:47:01;5.30;;;4.77;;
22455;SDS011;11395;53.204;6.502;2022-07-03T03:49:28;5.70;;;5.20;;
22455;SDS011;11395;53.204;6.502;2022-07-03T03:51:54;5.07;;;4.57;;
22455;SDS011;11395;53.204;6.502;2022-07-03T03:54:21;5.57;;;4.80;;
22455;SDS011;11395;53.204;6.502;2022-07-03T03:56:47;5.07;;;4.67;;
22455;SDS011;11395;53.204;6.502;2022-07-03T03:59:14;5.13;;;4.23;;
22455;SDS011;11395;53.204;6.502;2022-07-03T04:01:40;6.03;;;5.00;;
22455;SDS011;11395;53.204;6.502;2022-07-03T04:04:07;5.13;;;4.63;;
22455;SDS011;11395;53.204;6.502;2022-07-03T04:06:33;5.47;;;4.50;;
22455;SDS011;11395;53.204;6.502;2022-07-03T04:08:59;4.83;;;4.33;;
22455;SDS011;11395;53.204;6.502;2022-07-03T04:11:25;5.60;;;5.10;;
22455;SDS011;11395;53.204;6.502;2022-07-03T04:13:51;5.47;;;4.50;;
22455;SDS011;11395;53.204;6.502;2022-07-03T04:16:17;5.03;;;4.43;;
22455;SDS011;11395;53.204;6.502;2022-07-03T04:18:43;5.30;;;4.77;;
22455;SDS011;11395;53.204;6.502;2022-07-03T04:21:10;4.83;;;4.27;;
22455;SDS011;11395;53.204;6.502;2022-07-03T04:23:36;4.77;;;4.27;;
22455;SDS011;11395;53.204;6.502;2022-07-03T04:26:05;4.80;;;4.30;;
22455;SDS011;11395;53.204;6.502;2022-07-03T04:28:32;5.20;;;4.70;;
22455;SDS011;11395;53.204;6.502;2022-07-03T04:30:58;4.90;;;4.40;;
22455;SDS011;11395;53.204;6.502;2022-07-03T04:33:25;5.00;;;4.50;;
22455;SDS011;11395;53.204;6.502;2022-07-03T04:35:51;4.77;;;4.37;;
22455;SDS011;11395;53.204;6.502;2022-07-03T04:38:17;5.07;;;4.60;;
22455;SDS011;11395;53.204;6.502;2022-07-03T04:40:43;5.47;;;4.93;;
22455;SDS011;11395;53.204;6.502;2022-07-03T04:43:09;4.60;;;4.07;;
22455;SDS011;11395;53.204;6.502;2022-07-03T04:45:36;4.70;;;3.97;;
22455;SDS011;11395;53.204;6.502;2022-07-03T04:48:02;4.27;;;3.87;;
22455;SDS011;11395;53.204;6.502;2022-07-03T04:50:28;4.90;;;4.50;;
22455;SDS011;11395;53.204;6.502;2022-07-03T04:52:54;4.90;;;4.03;;
22455;SDS011;11395;53.204;6.502;2022-07-03T04:55:21;4.53;;;4.13;;
22455;SDS011;11395;53.204;6.502;2022-07-03T04:57:47;4.50;;;3.77;;
22455;SDS011;11395;53.204;6.502;2022-07-03T05:00:13;4.87;;;4.47;;
22455;SDS011;11395;53.204;6.502;2022-07-03T05:02:39;5.33;;;4.83;;
22455;SDS011;11395;53.204;6.502;2022-07-03T05:05:05;4.93;;;4.43;;
22455;SDS011;11395;53.204;6.502;2022-07-03T05:07:32;5.07;;;4.57;;
22455;SDS011;11395;53.204;6.502;2022-07-03T05:09:58;4.60;;;4.20;;
22455;SDS011;11395;53.204;6.502;2022-07-03T05:12:24;4.50;;;4.10;;
22455;SDS011;11395;53.204;6.502;2022-07-03T05:14:51;4.30;;;3.90;;
22455;SDS011;11395;53.204;6.502;2022-07-03T05:17:17;4.40;;;4.10;;
22455;SDS011;11395;53.204;6.502;2022-07-03T05:19:44;5.03;;;4.63;;
22455;SDS011;11395;53.204;6.502;2022-07-03T05:22:10;5.37;;;4.50;;
22455;SDS011;11395;53.204;6.502;2022-07-03T05:24:36;4.50;;;4.10;;
22455;SDS011;11395;53.204;6.502;2022-07-03T05:27:03;4.10;;;3.77;;
22455;SDS011;11395;53.204;6.502;2022-07-03T05:29:30;4.33;;;3.93;;
22455;SDS011;11395;53.204;6.502;2022-07-03T05:31:56;4.63;;;4.17;;
22455;SDS011;11395;53.204;6.502;2022-07-03T05:34:22;4.43;;;4.03;;
22455;SDS011;11395;53.204;6.502;2022-07-03T05:36:48;4.50;;;4.10;;
22455;SDS011;11395;53.204;6.502;2022-07-03T05:39:14;4.17;;;3.70;;
22455;SDS011;11395;53.204;6.502;2022-07-03T05:41:59;4.87;;;4.33;;
22455;SDS011;11395;53.204;6.502;2022-07-03T05:44:25;4.30;;;3.90;;
22455;SDS011;11395;53.204;6.502;2022-07-03T05:46:51;4.13;;;3.83;;
22455;SDS011;11395;53.204;6.502;2022-07-03T05:49:18;4.60;;;4.20;;
22455;SDS011;11395;53.204;6.502;2022-07-03T05:51:44;5.03;;;4.30;;
22455;SDS011;11395;53.204;6.502;2022-07-03T05:54:10;4.03;;;3.73;;
22455;SDS011;11395;53.204;6.502;2022-07-03T05:56:36;3.70;;;3.40;;
22455;SDS011;11395;53.204;6.502;2022-07-03T05:59:02;4.80;;;4.33;;
22455;SDS011;11395;53.204;6.502;2022-07-03T06:01:29;4.20;;;3.80;;
22455;SDS011;11395;53.204;6.502;2022-07-03T06:03:55;4.37;;;3.97;;
22455;SDS011;11395;53.204;6.502;2022-07-03T06:06:21;3.80;;;3.50;;
22455;SDS011;11395;53.204;6.502;2022-07-03T06:08:47;5.13;;;4.13;;
22455;SDS011;11395;53.204;6.502;2022-07-03T06:11:13;3.70;;;3.40;;
22455;SDS011;11395;53.204;6.502;2022-07-03T06:13:40;4.20;;;3.50;;
22455;SDS011;11395;53.204;6.502;2022-07-03T06:16:06;3.73;;;3.43;;
22455;SDS011;11395;53.204;6.502;2022-07-03T06:18:32;3.70;;;3.40;;
22455;SDS011;11395;53.204;6.502;2022-07-03T06:20:58;4.07;;;3.67;;
22455;SDS011;11395;53.204;6.502;2022-07-03T06:23:24;3.50;;;3.20;;
22455;SDS011;11395;53.204;6.502;2022-07-03T06:25:50;3.80;;;3.50;;
22455;SDS011;11395;53.204;6.502;2022-07-03T06:28:17;3.33;;;3.03;;
22455;SDS011;11395;53.204;6.502;2022-07-03T06:30:43;3.70;;;3.20;;
22455;SDS011;11395;53.204;6.502;2022-07-03T06:33:09;3.50;;;3.20;;
22455;SDS011;11395;53.204;6.502;2022-07-03T06:35:35;3.53;;;3.17;;
22455;SDS011;11395;53.204;6.502;2022-07-03T06:38:02;3.40;;;3.20;;
22455;SDS011;11395;53.204;6.502;2022-07-03T06:40:29;3.37;;;3.17;;
22455;SDS011;11395;53.204;6.502;2022-07-03T06:42:55;3.40;;;3.10;;
22455;SDS011;11395;53.204;6.502;2022-07-03T06:45:22;3.30;;;3.00;;
22455;SDS011;11395;53.204;6.502;2022-07-03T06:47:48;3.27;;;3.03;;
22455;SDS011;11395;53.204;6.502;2022-07-03T06:50:14;3.60;;;3.30;;
22455;SDS011;11395;53.204;6.502;2022-07-03T06:52:40;3.07;;;2.77;;
22455;SDS011;11395;53.204;6.502;2022-07-03T06:55:06;3.27;;;3.07;;
22455;SDS011;11395;53.204;6.502;2022-07-03T06:57:33;3.47;;;3.17;;
22455;SDS011;11395;53.204;6.502;2022-07-03T06:59:59;3.30;;;3.10;;
22455;SDS011;11395;53.204;6.502;2022-07-03T07:02:25;3.63;;;3.20;;
22455;SDS011;11395;53.204;6.502;2022-07-03T07:04:51;2.97;;;2.77;;
22455;SDS011;11395;53.204;6.502;2022-07-03T07:07:17;4.60;;;3.03;;
22455;SDS011;11395;53.204;6.502;2022-07-03T07:09:43;4.27;;;3.03;;
22455;SDS011;11395;53.204;6.502;2022-07-03T07:12:10;2.97;;;2.77;;
22455;SDS011;11395;53.204;6.502;2022-07-03T07:14:36;2.93;;;2.73;;
22455;SDS011;11395;53.204;6.502;2022-07-03T07:17:02;2.97;;;2.77;;
22455;SDS011;11395;53.204;6.502;2022-07-03T07:19:28;2.90;;;2.60;;
22455;SDS011;11395;53.204;6.502;2022-07-03T07:21:55;3.00;;;2.80;;
22455;SDS011;11395;53.204;6.502;2022-07-03T07:24:21;3.07;;;2.77;;
22455;SDS011;11395;53.204;6.502;2022-07-03T07:26:47;2.67;;;2.50;;
22455;SDS011;11395;53.204;6.502;2022-07-03T07:29:13;3.43;;;3.13;;
22455;SDS011;11395;53.204;6.502;2022-07-03T07:31:39;3.10;;;2.90;;
22455;SDS011;11395;53.204;6.502;2022-07-03T07:34:06;3.30;;;2.90;;
22455;SDS011;11395;53.204;6.502;2022-07-03T07:36:32;3.00;;;2.70;;
22455;SDS011;11395;53.204;6.502;2022-07-03T07:38:58;3.33;;;3.03;;
22455;SDS011;11395;53.204;6.502;2022-07-03T07:41:24;2.50;;;2.30;;
22455;SDS011;11395;53.204;6.502;2022-07-03T07:43:50;2.80;;;2.60;;
22455;SDS011;11395;53.204;6.502;2022-07-03T07:46:16;3.00;;;2.80;;
22455;SDS011;11395;53.204;6.502;2022-07-03T07:48:43;2.90;;;2.70;;
22455;SDS011;11395;53.204;6.502;2022-07-03T07:51:10;3.13;;;2.93;;
22455;SDS011;11395;53.204;6.502;2022-07-03T07:53:36;3.17;;;2.80;;
22455;SDS011;11395;53.204;6.502;2022-07-03T07:56:03;2.67;;;2.47;;
22455;SDS011;11395;53.204;6.502;2022-07-03T07:58:29;3.20;;;2.90;;
22455;SDS011;11395;53.204;6.502;2022-07-03T08:00:55;2.70;;;2.50;;
22455;SDS011;11395;53.204;6.502;2022-07-03T08:03:40;2.93;;;2.73;;
22455;SDS011;11395;53.204;6.502;2022-07-03T08:06:25;2.90;;;2.70;;
22455;SDS011;11395;53.204;6.502;2022-07-03T08:08:51;3.17;;;2.87;;
22455;SDS011;11395;53.204;6.502;2022-07-03T08:11:17;3.07;;;2.87;;
22455;SDS011;11395;53.204;6.502;2022-07-03T08:13:44;2.70;;;2.50;;
22455;SDS011;11395;53.204;6.502;2022-07-03T08:16:12;2.60;;;2.40;;
22455;SDS011;11395;53.204;6.502;2022-07-03T08:18:39;2.80;;;2.60;;
22455;SDS011;11395;53.204;6.502;2022-07-03T08:21:05;2.60;;;2.30;;
22455;SDS011;11395;53.204;6.502;2022-07-03T08:23:31;2.90;;;2.70;;
22455;SDS011;11395;53.204;6.502;2022-07-03T08:25:57;3.23;;;2.67;;
22455;SDS011;11395;53.204;6.502;2022-07-03T08:28:23;3.43;;;2.93;;
22455;SDS011;11395;53.204;6.502;2022-07-03T08:30:50;2.53;;;2.33;;
22455;SDS011;11395;53.204;6.502;2022-07-03T08:33:16;2.70;;;2.10;;
22455;SDS011;11395;53.204;6.502;2022-07-03T08:35:42;2.30;;;2.10;;
22455;SDS011;11395;53.204;6.502;2022-07-03T08:38:08;2.63;;;2.42;;
22455;SDS011;11395;53.204;6.502;2022-07-03T08:40:34;2.50;;;2.30;;
22455;SDS011;11395;53.204;6.502;2022-07-03T08:43:01;2.07;;;1.97;;
22455;SDS011;11395;53.204;6.502;2022-07-03T08:45:29;2.47;;;2.27;;
22455;SDS011;11395;53.204;6.502;2022-07-03T08:47:59;2.27;;;2.07;;
22455;SDS011;11395;53.204;6.502;2022-07-03T08:50:27;2.57;;;2.37;;
22455;SDS011;11395;53.204;6.502;2022-07-03T08:52:58;2.00;;;1.90;;
22455;SDS011;11395;53.204;6.502;2022-07-03T08:55:25;2.10;;;2.00;;
22455;SDS011;11395;53.204;6.502;2022-07-03T08:57:51;2.30;;;2.10;;
22455;SDS011;11395;53.204;6.502;2022-07-03T09:00:21;3.30;;;2.23;;
22455;SDS011;11395;53.204;6.502;2022-07-03T09:02:48;2.50;;;2.30;;
22455;SDS011;11395;53.204;6.502;2022-07-03T09:05:15;2.20;;;2.00;;
22455;SDS011;11395;53.204;6.502;2022-07-03T09:07:43;3.50;;;2.40;;
22455;SDS011;11395;53.204;6.502;2022-07-03T09:10:15;3.30;;;2.27;;
22455;SDS011;11395;53.204;6.502;2022-07-03T09:12:47;2.93;;;2.03;;
22455;SDS011;11395;53.204;6.502;2022-07-03T09:15:14;2.10;;;1.97;;
22455;SDS011;11395;53.204;6.502;2022-07-03T09:18:00;2.23;;;2.03;;
22455;SDS011;11395;53.204;6.502;2022-07-03T09:20:32;2.30;;;2.20;;
22455;SDS011;11395;53.204;6.502;2022-07-03T09:23:09;2.13;;;1.93;;
22455;SDS011;11395;53.204;6.502;2022-07-03T09:25:55;3.13;;;2.30;;
22455;SDS011;11395;53.204;6.502;2022-07-03T09:28:24;2.20;;;2.00;;
22455;SDS011;11395;53.204;6.502;2022-07-03T09:31:11;2.40;;;2.20;;
22455;SDS011;11395;53.204;6.502;2022-07-03T09:36:41;2.50;;;2.30;;
22455;SDS011;11395;53.204;6.502;2022-07-03T09:44:37;2.10;;;2.00;;
22455;SDS011;11395;53.204;6.502;2022-07-03T09:52:39;2.27;;;2.07;;
22455;SDS011;11395;53.204;6.502;2022-07-03T10:00:20;1.73;;;1.63;;
22455;SDS011;11395;53.204;6.502;2022-07-03T10:05:25;2.30;;;2.10;;
22455;SDS011;11395;53.204;6.502;2022-07-03T10:07:53;2.33;;;1.83;;
22455;SDS011;11395;53.204;6.502;2022-07-03T10:10:21;2.00;;;1.90;;
22455;SDS011;11395;53.204;6.502;2022-07-03T10:12:50;2.03;;;1.90;;
22455;SDS011;11395;53.204;6.502;2022-07-03T10:15:17;2.40;;;2.20;;
22455;SDS011;11395;53.204;6.502;2022-07-03T10:17:48;1.93;;;1.83;;
22455;SDS011;11395;53.204;6.502;2022-07-03T10:20:29;2.13;;;2.03;;
22455;SDS011;11395;53.204;6.502;2022-07-03T10:22:59;1.80;;;1.70;;
22455;SDS011;11395;53.204;6.502;2022-07-03T10:25:26;2.23;;;2.03;;
22455;SDS011;11395;53.204;6.502;2022-07-03T10:27:52;2.10;;;1.90;;
22455;SDS011;11395;53.204;6.502;2022-07-03T10:30:19;1.90;;;1.80;;
22455;SDS011;11395;53.204;6.502;2022-07-03T10:32:48;1.87;;;1.77;;
22455;SDS011;11395;53.204;6.502;2022-07-03T10:35:16;2.23;;;1.70;;
22455;SDS011;11395;53.204;6.502;2022-07-03T10:37:49;2.00;;;1.80;;
22455;SDS011;11395;53.204;6.502;2022-07-03T10:43:27;2.17;;;1.97;;
22455;SDS011;11395;53.204;6.502;2022-07-03T10:46:18;1.83;;;1.70;;
22455;SDS011;11395;53.204;6.502;2022-07-03T10:48:51;1.80;;;1.70;;
22455;SDS011;11395;53.204;6.502;2022-07-03T10:51:17;1.80;;;1.70;;
22455;SDS011;11395;53.204;6.502;2022-07-03T10:53:44;1.43;;;1.40;;
22455;SDS011;11395;53.204;6.502;2022-07-03T10:56:10;1.90;;;1.80;;
22455;SDS011;11395;53.204;6.502;2022-07-03T10:58:55;1.90;;;1.80;;
22455;SDS011;11395;53.204;6.502;2022-07-03T11:01:26;3.23;;;1.90;;
22455;SDS011;11395;53.204;6.502;2022-07-03T11:04:00;2.20;;;2.10;;
22455;SDS011;11395;53.204;6.502;2022-07-03T11:09:33;2.17;;;1.67;;
22455;SDS011;11395;53.204;6.502;2022-07-03T11:11:59;2.13;;;1.93;;
22455;SDS011;11395;53.204;6.502;2022-07-03T11:14:29;2.00;;;1.90;;
22455;SDS011;11395;53.204;6.502;2022-07-03T11:19:45;2.20;;;1.97;;
22455;SDS011;11395;53.204;6.502;2022-07-03T11:22:38;1.73;;;1.63;;
22455;SDS011;11395;53.204;6.502;2022-07-03T11:25:15;1.80;;;1.70;;
22455;SDS011;11395;53.204;6.502;2022-07-03T11:27:43;1.87;;;1.77;;
22455;SDS011;11395;53.204;6.502;2022-07-03T11:30:09;2.00;;;1.90;;
22455;SDS011;11395;53.204;6.502;2022-07-03T11:32:44;1.93;;;1.73;;
22455;SDS011;11395;53.204;6.502;2022-07-03T11:38:14;2.00;;;1.90;;
22455;SDS011;11395;53.204;6.502;2022-07-03T11:40:41;1.83;;;1.73;;
22455;SDS011;11395;53.204;6.502;2022-07-03T11:43:10;1.90;;;1.80;;
22455;SDS011;11395;53.204;6.502;2022-07-03T11:45:37;1.83;;;1.73;;
22455;SDS011;11395;53.204;6.502;2022-07-03T11:48:09;2.17;;;1.93;;
22455;SDS011;11395;53.204;6.502;2022-07-03T11:50:45;2.03;;;1.90;;
22455;SDS011;11395;53.204;6.502;2022-07-03T11:53:16;1.67;;;1.57;;
22455;SDS011;11395;53.204;6.502;2022-07-03T11:55:56;1.57;;;1.47;;
22455;SDS011;11395;53.204;6.502;2022-07-03T11:58:22;1.80;;;1.70;;
22455;SDS011;11395;53.204;6.502;2022-07-03T12:00:50;1.87;;;1.77;;
22455;SDS011;11395;53.204;6.502;2022-07-03T12:03:23;1.60;;;1.50;;
22455;SDS011;11395;53.204;6.502;2022-07-03T12:05:55;2.23;;;1.60;;
22455;SDS011;11395;53.204;6.502;2022-07-03T12:08:27;1.67;;;1.57;;
22455;SDS011;11395;53.204;6.502;2022-07-03T12:11:05;1.80;;;1.70;;
22455;SDS011;11395;53.204;6.502;2022-07-03T12:13:33;1.50;;;1.50;;
22455;SDS011;11395;53.204;6.502;2022-07-03T12:16:01;1.63;;;1.53;;
22455;SDS011;11395;53.204;6.502;2022-07-03T12:18:40;1.70;;;1.60;;
22455;SDS011;11395;53.204;6.502;2022-07-03T12:21:09;1.77;;;1.67;;
22455;SDS011;11395;53.204;6.502;2022-07-03T12:23:43;1.90;;;1.80;;
22455;SDS011;11395;53.204;6.502;2022-07-03T12:26:29;1.60;;;1.50;;
22455;SDS011;11395;53.204;6.502;2022-07-03T12:29:07;1.80;;;1.70;;
22455;SDS011;11395;53.204;6.502;2022-07-03T12:31:39;1.90;;;1.80;;
22455;SDS011;11395;53.204;6.502;2022-07-03T12:34:06;1.67;;;1.57;;
22455;SDS011;11395;53.204;6.502;2022-07-03T12:36:33;1.97;;;1.73;;
22455;SDS011;11395;53.204;6.502;2022-07-03T12:38:59;2.00;;;1.80;;
22455;SDS011;11395;53.204;6.502;2022-07-03T12:41:26;1.43;;;1.33;;
22455;SDS011;11395;53.204;6.502;2022-07-03T12:43:53;1.60;;;1.50;;
22455;SDS011;11395;53.204;6.502;2022-07-03T12:46:21;1.77;;;1.40;;
22455;SDS011;11395;53.204;6.502;2022-07-03T12:48:52;2.00;;;1.53;;
22455;SDS011;11395;53.204;6.502;2022-07-03T12:54:31;1.60;;;1.50;;
22455;SDS011;11395;53.204;6.502;2022-07-03T12:57:03;1.97;;;1.77;;
22455;SDS011;11395;53.204;6.502;2022-07-03T13:00:03;2.60;;;1.53;;
22455;SDS011;11395;53.204;6.502;2022-07-03T13:02:29;1.60;;;1.50;;
22455;SDS011;11395;53.204;6.502;2022-07-03T13:04:58;1.50;;;1.40;;
22455;SDS011;11395;53.204;6.502;2022-07-03T13:07:29;2.00;;;1.80;;
22455;SDS011;11395;53.204;6.502;2022-07-03T13:09:59;1.50;;;1.40;;
22455;SDS011;11395;53.204;6.502;2022-07-03T13:12:27;1.70;;;1.60;;
22455;SDS011;11395;53.204;6.502;2022-07-03T13:14:56;2.10;;;1.60;;
22455;SDS011;11395;53.204;6.502;2022-07-03T13:17:24;1.60;;;1.40;;
22455;SDS011;11395;53.204;6.502;2022-07-03T13:20:19;1.73;;;1.63;;
22455;SDS011;11395;53.204;6.502;2022-07-03T13:23:19;1.90;;;1.80;;
22455;SDS011;11395;53.204;6.502;2022-07-03T13:25:38;1.77;;;1.60;;
22455;SDS011;11395;53.204;6.502;2022-07-03T13:28:09;1.60;;;1.50;;
22455;SDS011;11395;53.204;6.502;2022-07-03T13:30:37;2.43;;;1.87;;
22455;SDS011;11395;53.204;6.502;2022-07-03T13:33:05;1.47;;;1.37;;
22455;SDS011;11395;53.204;6.502;2022-07-03T13:35:32;3.03;;;1.80;;
22455;SDS011;11395;53.204;6.502;2022-07-03T13:37:59;1.67;;;1.57;;
22455;SDS011;11395;53.204;6.502;2022-07-03T13:40:25;1.60;;;1.50;;
22455;SDS011;11395;53.204;6.502;2022-07-03T13:42:51;1.60;;;1.50;;
22455;SDS011;11395;53.204;6.502;2022-07-03T13:45:17;1.60;;;1.50;;
22455;SDS011;11395;53.204;6.502;2022-07-03T13:47:44;2.27;;;2.07;;
22455;SDS011;11395;53.204;6.502;2022-07-03T13:50:10;1.70;;;1.60;;
22455;SDS011;11395;53.204;6.502;2022-07-03T13:52:36;2.00;;;1.73;;
22455;SDS011;11395;53.204;6.502;2022-07-03T13:55:03;1.70;;;1.60;;
22455;SDS011;11395;53.204;6.502;2022-07-03T13:57:30;1.90;;;1.40;;
22455;SDS011;11395;53.204;6.502;2022-07-03T13:59:58;1.70;;;1.60;;
22455;SDS011;11395;53.204;6.502;2022-07-03T14:02:24;1.80;;;1.70;;
22455;SDS011;11395;53.204;6.502;2022-07-03T14:04:50;1.30;;;1.30;;
22455;SDS011;11395;53.204;6.502;2022-07-03T14:07:16;1.80;;;1.70;;
22455;SDS011;11395;53.204;6.502;2022-07-03T14:09:43;1.70;;;1.60;;
22455;SDS011;11395;53.204;6.502;2022-07-03T14:12:09;1.63;;;1.53;;
22455;SDS011;11395;53.204;6.502;2022-07-03T14:14:35;1.70;;;1.60;;
22455;SDS011;11395;53.204;6.502;2022-07-03T14:17:02;1.83;;;1.73;;
22455;SDS011;11395;53.204;6.502;2022-07-03T14:19:28;1.60;;;1.50;;
22455;SDS011;11395;53.204;6.502;2022-07-03T14:21:54;1.50;;;1.40;;
22455;SDS011;11395;53.204;6.502;2022-07-03T14:24:20;1.63;;;1.53;;
22455;SDS011;11395;53.204;6.502;2022-07-03T14:26:46;1.50;;;1.40;;
22455;SDS011;11395;53.204;6.502;2022-07-03T14:29:31;1.90;;;1.80;;
22455;SDS011;11395;53.204;6.502;2022-07-03T14:32:16;1.60;;;1.50;;
22455;SDS011;11395;53.204;6.502;2022-07-03T14:34:58;1.70;;;1.57;;
22455;SDS011;11395;53.204;6.502;2022-07-03T14:37:26;1.33;;;1.23;;
22455;SDS011;11395;53.204;6.502;2022-07-03T14:39:53;1.63;;;1.53;;
22455;SDS011;11395;53.204;6.502;2022-07-03T14:42:19;1.87;;;1.77;;
22455;SDS011;11395;53.204;6.502;2022-07-03T14:44:46;1.53;;;1.40;;
22455;SDS011;11395;53.204;6.502;2022-07-03T14:47:13;1.60;;;1.50;;
22455;SDS011;11395;53.204;6.502;2022-07-03T14:49:39;1.57;;;1.47;;
22455;SDS011;11395;53.204;6.502;2022-07-03T14:52:05;1.80;;;1.70;;
22455;SDS011;11395;53.204;6.502;2022-07-03T14:54:32;1.80;;;1.70;;
22455;SDS011;11395;53.204;6.502;2022-07-03T14:57:02;1.60;;;1.50;;
22455;SDS011;11395;53.204;6.502;2022-07-03T15:02:28;1.77;;;1.67;;
22455;SDS011;11395;53.204;6.502;2022-07-03T15:05:08;2.20;;;1.77;;
22455;SDS011;11395;53.204;6.502;2022-07-03T15:10:19;2.97;;;1.50;;
22455;SDS011;11395;53.204;6.502;2022-07-03T15:12:46;1.47;;;1.37;;
22455;SDS011;11395;53.204;6.502;2022-07-03T15:15:16;1.37;;;1.27;;
22455;SDS011;11395;53.204;6.502;2022-07-03T15:17:47;1.60;;;1.50;;
22455;SDS011;11395;53.204;6.502;2022-07-03T15:20:18;2.07;;;1.40;;
22455;SDS011;11395;53.204;6.502;2022-07-03T15:22:47;1.67;;;1.30;;
22455;SDS011;11395;53.204;6.502;2022-07-03T15:25:17;1.30;;;1.30;;
22455;SDS011;11395;53.204;6.502;2022-07-03T15:27:45;1.83;;;1.73;;
22455;SDS011;11395;53.204;6.502;2022-07-03T15:30:15;1.50;;;1.40;;
22455;SDS011;11395;53.204;6.502;2022-07-03T15:32:41;1.47;;;1.37;;
22455;SDS011;11395;53.204;6.502;2022-07-03T15:35:12;1.57;;;1.47;;
22455;SDS011;11395;53.204;6.502;2022-07-03T15:40:47;1.17;;;1.17;;
22455;SDS011;11395;53.204;6.502;2022-07-03T15:52:10;1.53;;;1.40;;
22455;SDS011;11395;53.204;6.502;2022-07-03T16:00:35;1.43;;;1.33;;
22455;SDS011;11395;53.204;6.502;2022-07-03T16:05:56;1.57;;;1.47;;
22455;SDS011;11395;53.204;6.502;2022-07-03T16:08:28;1.50;;;1.40;;
22455;SDS011;11395;53.204;6.502;2022-07-03T16:10:56;1.30;;;1.30;;
22455;SDS011;11395;53.204;6.502;2022-07-03T16:13:24;1.30;;;1.20;;
22455;SDS011;11395;53.204;6.502;2022-07-03T16:15:52;1.30;;;1.30;;
22455;SDS011;11395;53.204;6.502;2022-07-03T16:18:21;2.07;;;1.30;;
22455;SDS011;11395;53.204;6.502;2022-07-03T16:20:50;1.50;;;1.40;;
22455;SDS011;11395;53.204;6.502;2022-07-03T16:23:17;1.73;;;1.63;;
22455;SDS011;11395;53.204;6.502;2022-07-03T16:25:44;1.43;;;1.33;;
22455;SDS011;11395;53.204;6.502;2022-07-03T16:28:12;1.10;;;1.10;;
22455;SDS011;11395;53.204;6.502;2022-07-03T16:30:45;1.70;;;1.60;;
22455;SDS011;11395;53.204;6.502;2022-07-03T16:33:13;1.93;;;1.53;;
22455;SDS011;11395;53.204;6.502;2022-07-03T16:35:40;1.30;;;1.20;;
22455;SDS011;11395;53.204;6.502;2022-07-03T16:38:20;1.37;;;1.30;;
22455;SDS011;11395;53.204;6.502;2022-07-03T16:40:50;1.30;;;1.30;;
22455;SDS011;11395;53.204;6.502;2022-07-03T16:43:19;1.50;;;1.40;;
22455;SDS011;11395;53.204;6.502;2022-07-03T16:45:47;1.83;;;1.73;;
22455;SDS011;11395;53.204;6.502;2022-07-03T16:48:15;1.50;;;1.40;;
22455;SDS011;11395;53.204;6.502;2022-07-03T16:50:56;1.60;;;1.50;;
22455;SDS011;11395;53.204;6.502;2022-07-03T16:53:25;1.60;;;1.50;;
22455;SDS011;11395;53.204;6.502;2022-07-03T16:55:52;1.23;;;1.23;;